sensor_id;sensor_type;location;lat;lon;timestamp;P1;durP1;ratioP1;P2;durP2;ratioP2
34405;SDS011;20658;45.630;8.886;2023-05-14T00:00:00;5.75;;;2.55;;
34405;SDS011;20658;45.630;8.886;2023-05-14T00:02:36;4.18;;;2.40;;
34405;SDS011;20658;45.630;8.886;2023-05-14T00:05:09;6.88;;;2.20;;
34405;SDS011;20658;45.630;8.886;2023-05-14T00:07:43;7.05;;;3.05;;
34405;SDS011;20658;45.630;8.886;2023-05-14T00:10:16;6.60;;;3.03;;
34405;SDS011;20658;45.630;8.886;2023-05-14T00:12:46;6.47;;;2.25;;
34405;SDS011;20658;45.630;8.886;2023-05-14T00:15:20;5.07;;;2.33;;
34405;SDS011;20658;45.630;8.886;2023-05-14T00:17:55;8.95;;;3.00;;
34405;SDS011;20658;45.630;8.886;2023-05-14T00:20:29;8.95;;;2.90;;
34405;SDS011;20658;45.630;8.886;2023-05-14T00:23:02;4.45;;;2.42;;
34405;SDS011;20658;45.630;8.886;2023-05-14T00:25:37;4.97;;;2.70;;
34405;SDS011;20658;45.630;8.886;2023-05-14T00:28:05;7.32;;;2.58;;
34405;SDS011;20658;45.630;8.886;2023-05-14T00:30:39;6.43;;;2.80;;
34405;SDS011;20658;45.630;8.886;2023-05-14T00:33:15;6.28;;;3.00;;
34405;SDS011;20658;45.630;8.886;2023-05-14T00:35:49;8.13;;;2.50;;
34405;SDS011;20658;45.630;8.886;2023-05-14T00:38:22;7.20;;;2.70;;
34405;SDS011;20658;45.630;8.886;2023-05-14T00:40:58;4.05;;;2.42;;
34405;SDS011;20658;45.630;8.886;2023-05-14T00:43:31;10.88;;;2.58;;
34405;SDS011;20658;45.630;8.886;2023-05-14T00:46:04;4.05;;;2.08;;
34405;SDS011;20658;45.630;8.886;2023-05-14T00:48:39;3.20;;;1.90;;
34405;SDS011;20658;45.630;8.886;2023-05-14T00:51:13;6.05;;;2.22;;
34405;SDS011;20658;45.630;8.886;2023-05-14T00:53:47;5.20;;;2.15;;
34405;SDS011;20658;45.630;8.886;2023-05-14T00:56:21;5.43;;;2.33;;
34405;SDS011;20658;45.630;8.886;2023-05-14T00:58:55;4.60;;;1.92;;
34405;SDS011;20658;45.630;8.886;2023-05-14T01:01:28;5.28;;;2.15;;
34405;SDS011;20658;45.630;8.886;2023-05-14T01:04:03;6.53;;;2.08;;
34405;SDS011;20658;45.630;8.886;2023-05-14T01:06:41;3.20;;;1.70;;
34405;SDS011;20658;45.630;8.886;2023-05-14T01:09:25;6.28;;;2.65;;
34405;SDS011;20658;45.630;8.886;2023-05-14T01:12:07;5.47;;;2.55;;
34405;SDS011;20658;45.630;8.886;2023-05-14T01:14:51;4.95;;;2.22;;
34405;SDS011;20658;45.630;8.886;2023-05-14T01:17:32;6.75;;;2.20;;
34405;SDS011;20658;45.630;8.886;2023-05-14T01:20:12;4.53;;;1.65;;
34405;SDS011;20658;45.630;8.886;2023-05-14T01:22:48;3.30;;;1.88;;
34405;SDS011;20658;45.630;8.886;2023-05-14T01:25:16;4.80;;;1.75;;
34405;SDS011;20658;45.630;8.886;2023-05-14T01:27:52;7.20;;;2.22;;
34405;SDS011;20658;45.630;8.886;2023-05-14T01:30:33;3.90;;;2.17;;
34405;SDS011;20658;45.630;8.886;2023-05-14T01:33:10;7.05;;;2.67;;
34405;SDS011;20658;45.630;8.886;2023-05-14T01:35:46;6.00;;;2.65;;
34405;SDS011;20658;45.630;8.886;2023-05-14T01:38:21;3.22;;;1.70;;
34405;SDS011;20658;45.630;8.886;2023-05-14T01:40:55;3.78;;;2.08;;
34405;SDS011;20658;45.630;8.886;2023-05-14T01:43:30;5.25;;;2.08;;
34405;SDS011;20658;45.630;8.886;2023-05-14T01:46:04;5.32;;;1.85;;
34405;SDS011;20658;45.630;8.886;2023-05-14T01:48:37;5.55;;;2.38;;
34405;SDS011;20658;45.630;8.886;2023-05-14T01:51:11;4.38;;;2.03;;
34405;SDS011;20658;45.630;8.886;2023-05-14T01:53:46;5.68;;;2.60;;
34405;SDS011;20658;45.630;8.886;2023-05-14T01:56:21;6.32;;;2.50;;
34405;SDS011;20658;45.630;8.886;2023-05-14T01:58:55;5.00;;;3.00;;
34405;SDS011;20658;45.630;8.886;2023-05-14T02:01:29;4.65;;;3.15;;
34405;SDS011;20658;45.630;8.886;2023-05-14T02:04:02;4.20;;;2.60;;
34405;SDS011;20658;45.630;8.886;2023-05-14T02:06:36;6.55;;;3.13;;
34405;SDS011;20658;45.630;8.886;2023-05-14T02:09:11;6.28;;;2.95;;
34405;SDS011;20658;45.630;8.886;2023-05-14T02:11:45;6.25;;;3.05;;
34405;SDS011;20658;45.630;8.886;2023-05-14T02:14:13;7.43;;;3.50;;
34405;SDS011;20658;45.630;8.886;2023-05-14T02:16:47;6.72;;;3.10;;
34405;SDS011;20658;45.630;8.886;2023-05-14T02:19:21;4.85;;;2.60;;
34405;SDS011;20658;45.630;8.886;2023-05-14T02:21:54;6.72;;;3.03;;
34405;SDS011;20658;45.630;8.886;2023-05-14T02:24:29;7.07;;;3.22;;
34405;SDS011;20658;45.630;8.886;2023-05-14T02:27:03;4.78;;;2.80;;
34405;SDS011;20658;45.630;8.886;2023-05-14T02:29:37;6.18;;;2.42;;
34405;SDS011;20658;45.630;8.886;2023-05-14T02:32:05;4.45;;;2.67;;
34405;SDS011;20658;45.630;8.886;2023-05-14T02:34:39;8.07;;;3.72;;
34405;SDS011;20658;45.630;8.886;2023-05-14T02:37:13;6.68;;;3.05;;
34405;SDS011;20658;45.630;8.886;2023-05-14T02:39:42;9.85;;;3.42;;
34405;SDS011;20658;45.630;8.886;2023-05-14T02:42:16;8.13;;;3.53;;
34405;SDS011;20658;45.630;8.886;2023-05-14T02:44:50;8.00;;;3.42;;
34405;SDS011;20658;45.630;8.886;2023-05-14T02:47:23;7.45;;;3.00;;
34405;SDS011;20658;45.630;8.886;2023-05-14T02:49:57;8.50;;;3.90;;
34405;SDS011;20658;45.630;8.886;2023-05-14T02:52:25;7.22;;;3.15;;
34405;SDS011;20658;45.630;8.886;2023-05-14T02:55:00;6.28;;;3.53;;
34405;SDS011;20658;45.630;8.886;2023-05-14T02:57:34;5.45;;;3.70;;
34405;SDS011;20658;45.630;8.886;2023-05-14T03:00:08;6.38;;;3.20;;
34405;SDS011;20658;45.630;8.886;2023-05-14T03:02:43;9.30;;;4.50;;
34405;SDS011;20658;45.630;8.886;2023-05-14T03:05:16;8.07;;;4.32;;
34405;SDS011;20658;45.630;8.886;2023-05-14T03:07:50;6.40;;;3.70;;
34405;SDS011;20658;45.630;8.886;2023-05-14T03:10:26;7.10;;;4.22;;
34405;SDS011;20658;45.630;8.886;2023-05-14T03:13:00;8.48;;;4.57;;
34405;SDS011;20658;45.630;8.886;2023-05-14T03:15:33;9.23;;;5.25;;
34405;SDS011;20658;45.630;8.886;2023-05-14T03:18:06;8.98;;;4.55;;
34405;SDS011;20658;45.630;8.886;2023-05-14T03:20:40;8.45;;;5.03;;
34405;SDS011;20658;45.630;8.886;2023-05-14T03:23:13;8.23;;;4.53;;
34405;SDS011;20658;45.630;8.886;2023-05-14T03:25:43;6.32;;;4.38;;
34405;SDS011;20658;45.630;8.886;2023-05-14T03:28:17;9.25;;;5.10;;
34405;SDS011;20658;45.630;8.886;2023-05-14T03:30:50;6.75;;;4.57;;
34405;SDS011;20658;45.630;8.886;2023-05-14T03:33:24;7.47;;;4.45;;
34405;SDS011;20658;45.630;8.886;2023-05-14T03:35:53;12.73;;;6.28;;
34405;SDS011;20658;45.630;8.886;2023-05-14T03:38:26;9.93;;;5.40;;
34405;SDS011;20658;45.630;8.886;2023-05-14T03:40:56;8.38;;;4.72;;
34405;SDS011;20658;45.630;8.886;2023-05-14T03:43:29;8.52;;;5.28;;
34405;SDS011;20658;45.630;8.886;2023-05-14T03:46:03;8.20;;;5.13;;
34405;SDS011;20658;45.630;8.886;2023-05-14T03:48:36;6.25;;;4.68;;
34405;SDS011;20658;45.630;8.886;2023-05-14T03:51:11;5.50;;;4.20;;
34405;SDS011;20658;45.630;8.886;2023-05-14T03:53:44;8.00;;;4.25;;
34405;SDS011;20658;45.630;8.886;2023-05-14T03:56:19;13.68;;;4.97;;
34405;SDS011;20658;45.630;8.886;2023-05-14T03:58:53;11.63;;;6.13;;
34405;SDS011;20658;45.630;8.886;2023-05-14T04:01:26;14.40;;;7.53;;
34405;SDS011;20658;45.630;8.886;2023-05-14T04:03:56;12.80;;;6.20;;
34405;SDS011;20658;45.630;8.886;2023-05-14T04:06:29;9.52;;;6.28;;
34405;SDS011;20658;45.630;8.886;2023-05-14T04:09:00;10.80;;;6.63;;
34405;SDS011;20658;45.630;8.886;2023-05-14T04:11:30;10.38;;;5.20;;
34405;SDS011;20658;45.630;8.886;2023-05-14T04:14:04;12.00;;;5.32;;
34405;SDS011;20658;45.630;8.886;2023-05-14T04:16:37;9.05;;;5.35;;
34405;SDS011;20658;45.630;8.886;2023-05-14T04:19:11;7.05;;;5.30;;
34405;SDS011;20658;45.630;8.886;2023-05-14T04:21:44;9.23;;;5.90;;
34405;SDS011;20658;45.630;8.886;2023-05-14T04:24:18;9.65;;;5.63;;
34405;SDS011;20658;45.630;8.886;2023-05-14T04:26:53;11.50;;;7.20;;
34405;SDS011;20658;45.630;8.886;2023-05-14T04:29:26;8.75;;;5.70;;
34405;SDS011;20658;45.630;8.886;2023-05-14T04:31:54;9.90;;;6.30;;
34405;SDS011;20658;45.630;8.886;2023-05-14T04:34:23;12.63;;;5.93;;
34405;SDS011;20658;45.630;8.886;2023-05-14T04:36:56;10.25;;;5.90;;
34405;SDS011;20658;45.630;8.886;2023-05-14T04:39:30;11.80;;;6.38;;
34405;SDS011;20658;45.630;8.886;2023-05-14T04:42:05;12.57;;;6.30;;
34405;SDS011;20658;45.630;8.886;2023-05-14T04:44:39;11.00;;;5.78;;
34405;SDS011;20658;45.630;8.886;2023-05-14T04:47:12;12.93;;;6.43;;
34405;SDS011;20658;45.630;8.886;2023-05-14T04:49:46;9.60;;;5.60;;
34405;SDS011;20658;45.630;8.886;2023-05-14T04:52:19;9.88;;;6.75;;
34405;SDS011;20658;45.630;8.886;2023-05-14T04:54:53;13.93;;;7.38;;
34405;SDS011;20658;45.630;8.886;2023-05-14T04:57:28;12.50;;;6.50;;
34405;SDS011;20658;45.630;8.886;2023-05-14T05:00:02;13.07;;;8.13;;
34405;SDS011;20658;45.630;8.886;2023-05-14T05:02:38;13.40;;;7.90;;
34405;SDS011;20658;45.630;8.886;2023-05-14T05:05:11;12.25;;;7.20;;
34405;SDS011;20658;45.630;8.886;2023-05-14T05:07:45;14.40;;;6.82;;
34405;SDS011;20658;45.630;8.886;2023-05-14T05:10:18;16.70;;;8.32;;
34405;SDS011;20658;45.630;8.886;2023-05-14T05:12:53;15.65;;;8.20;;
34405;SDS011;20658;45.630;8.886;2023-05-14T05:15:26;12.52;;;7.50;;
34405;SDS011;20658;45.630;8.886;2023-05-14T05:18:00;11.27;;;7.03;;
34405;SDS011;20658;45.630;8.886;2023-05-14T05:20:33;14.13;;;6.53;;
34405;SDS011;20658;45.630;8.886;2023-05-14T05:23:01;10.82;;;7.07;;
34405;SDS011;20658;45.630;8.886;2023-05-14T05:25:30;10.10;;;6.93;;
34405;SDS011;20658;45.630;8.886;2023-05-14T05:28:05;15.38;;;6.43;;
34405;SDS011;20658;45.630;8.886;2023-05-14T05:30:38;9.35;;;6.75;;
34405;SDS011;20658;45.630;8.886;2023-05-14T05:33:12;14.65;;;6.68;;
34405;SDS011;20658;45.630;8.886;2023-05-14T05:35:40;15.18;;;6.88;;
34405;SDS011;20658;45.630;8.886;2023-05-14T05:38:14;13.70;;;6.43;;
34405;SDS011;20658;45.630;8.886;2023-05-14T05:40:44;10.15;;;6.57;;
34405;SDS011;20658;45.630;8.886;2023-05-14T05:43:19;13.25;;;7.32;;
34405;SDS011;20658;45.630;8.886;2023-05-14T05:45:53;9.50;;;5.82;;
34405;SDS011;20658;45.630;8.886;2023-05-14T05:48:27;13.70;;;6.38;;
34405;SDS011;20658;45.630;8.886;2023-05-14T05:50:55;9.63;;;5.78;;
34405;SDS011;20658;45.630;8.886;2023-05-14T05:53:29;11.82;;;5.85;;
34405;SDS011;20658;45.630;8.886;2023-05-14T05:55:57;11.63;;;6.07;;
34405;SDS011;20658;45.630;8.886;2023-05-14T05:58:27;12.40;;;6.47;;
34405;SDS011;20658;45.630;8.886;2023-05-14T06:00:56;14.25;;;6.18;;
34405;SDS011;20658;45.630;8.886;2023-05-14T06:03:30;10.02;;;5.88;;
34405;SDS011;20658;45.630;8.886;2023-05-14T06:05:58;10.43;;;6.07;;
34405;SDS011;20658;45.630;8.886;2023-05-14T06:08:26;15.38;;;6.15;;
34405;SDS011;20658;45.630;8.886;2023-05-14T06:10:55;13.35;;;5.57;;
34405;SDS011;20658;45.630;8.886;2023-05-14T06:13:30;8.18;;;5.30;;
34405;SDS011;20658;45.630;8.886;2023-05-14T06:16:03;9.07;;;5.32;;
34405;SDS011;20658;45.630;8.886;2023-05-14T06:18:32;16.60;;;6.10;;
34405;SDS011;20658;45.630;8.886;2023-05-14T06:21:06;9.93;;;5.28;;
34405;SDS011;20658;45.630;8.886;2023-05-14T06:23:34;11.57;;;5.80;;
34405;SDS011;20658;45.630;8.886;2023-05-14T06:26:03;10.95;;;5.80;;
34405;SDS011;20658;45.630;8.886;2023-05-14T06:28:38;10.32;;;6.30;;
34405;SDS011;20658;45.630;8.886;2023-05-14T06:31:11;10.60;;;5.95;;
34405;SDS011;20658;45.630;8.886;2023-05-14T06:33:45;10.73;;;6.60;;
34405;SDS011;20658;45.630;8.886;2023-05-14T06:36:18;10.07;;;5.78;;
34405;SDS011;20658;45.630;8.886;2023-05-14T06:38:46;9.32;;;5.78;;
34405;SDS011;20658;45.630;8.886;2023-05-14T06:41:20;10.10;;;5.47;;
34405;SDS011;20658;45.630;8.886;2023-05-14T06:43:49;9.80;;;5.25;;
34405;SDS011;20658;45.630;8.886;2023-05-14T06:46:23;7.95;;;4.90;;
34405;SDS011;20658;45.630;8.886;2023-05-14T06:48:56;10.35;;;5.05;;
34405;SDS011;20658;45.630;8.886;2023-05-14T06:51:25;8.38;;;4.53;;
34405;SDS011;20658;45.630;8.886;2023-05-14T06:53:58;7.78;;;4.25;;
34405;SDS011;20658;45.630;8.886;2023-05-14T06:56:32;8.40;;;3.60;;
34405;SDS011;20658;45.630;8.886;2023-05-14T06:59:03;8.75;;;3.60;;
34405;SDS011;20658;45.630;8.886;2023-05-14T07:01:32;6.05;;;3.35;;
34405;SDS011;20658;45.630;8.886;2023-05-14T07:04:00;6.30;;;3.50;;
34405;SDS011;20658;45.630;8.886;2023-05-14T07:06:29;6.30;;;3.10;;
34405;SDS011;20658;45.630;8.886;2023-05-14T07:08:57;5.40;;;2.85;;
34405;SDS011;20658;45.630;8.886;2023-05-14T07:11:32;7.60;;;3.00;;
34405;SDS011;20658;45.630;8.886;2023-05-14T07:14:01;5.72;;;3.50;;
34405;SDS011;20658;45.630;8.886;2023-05-14T07:16:31;3.92;;;2.35;;
34405;SDS011;20658;45.630;8.886;2023-05-14T07:18:59;5.80;;;2.42;;
34405;SDS011;20658;45.630;8.886;2023-05-14T07:21:28;6.60;;;2.90;;
34405;SDS011;20658;45.630;8.886;2023-05-14T07:23:57;4.32;;;2.15;;
34405;SDS011;20658;45.630;8.886;2023-05-14T07:26:31;4.95;;;1.98;;
34405;SDS011;20658;45.630;8.886;2023-05-14T07:29:04;5.38;;;2.30;;
34405;SDS011;20658;45.630;8.886;2023-05-14T07:31:39;4.85;;;1.90;;
34405;SDS011;20658;45.630;8.886;2023-05-14T07:34:13;4.85;;;2.60;;
34405;SDS011;20658;45.630;8.886;2023-05-14T07:36:42;5.18;;;2.20;;
34405;SDS011;20658;45.630;8.886;2023-05-14T07:39:10;3.10;;;2.08;;
34405;SDS011;20658;45.630;8.886;2023-05-14T07:41:39;3.42;;;1.85;;
34405;SDS011;20658;45.630;8.886;2023-05-14T07:44:07;4.53;;;2.00;;
34405;SDS011;20658;45.630;8.886;2023-05-14T07:46:36;6.13;;;2.03;;
34405;SDS011;20658;45.630;8.886;2023-05-14T07:49:07;2.47;;;1.48;;
34405;SDS011;20658;45.630;8.886;2023-05-14T07:51:40;4.03;;;1.63;;
34405;SDS011;20658;45.630;8.886;2023-05-14T07:54:09;4.78;;;1.80;;
34405;SDS011;20658;45.630;8.886;2023-05-14T07:56:37;4.65;;;1.38;;
34405;SDS011;20658;45.630;8.886;2023-05-14T07:59:06;5.30;;;1.25;;
34405;SDS011;20658;45.630;8.886;2023-05-14T08:01:35;3.75;;;1.00;;
34405;SDS011;20658;45.630;8.886;2023-05-14T08:04:09;1.48;;;1.02;;
34405;SDS011;20658;45.630;8.886;2023-05-14T08:06:43;2.38;;;0.80;;
34405;SDS011;20658;45.630;8.886;2023-05-14T08:09:11;2.72;;;1.35;;
34405;SDS011;20658;45.630;8.886;2023-05-14T08:11:40;1.67;;;1.00;;
34405;SDS011;20658;45.630;8.886;2023-05-14T08:14:09;4.05;;;1.30;;
34405;SDS011;20658;45.630;8.886;2023-05-14T08:16:37;2.67;;;1.23;;
34405;SDS011;20658;45.630;8.886;2023-05-14T08:19:06;12.30;;;5.88;;
34405;SDS011;20658;45.630;8.886;2023-05-14T08:21:40;6.78;;;2.78;;
34405;SDS011;20658;45.630;8.886;2023-05-14T08:24:09;21.80;;;11.25;;
34405;SDS011;20658;45.630;8.886;2023-05-14T08:26:42;14.63;;;7.10;;
34405;SDS011;20658;45.630;8.886;2023-05-14T08:29:11;10.65;;;5.43;;
34405;SDS011;20658;45.630;8.886;2023-05-14T08:31:39;3.50;;;2.38;;
34405;SDS011;20658;45.630;8.886;2023-05-14T08:34:08;47.63;;;36.42;;
34405;SDS011;20658;45.630;8.886;2023-05-14T08:36:43;19.92;;;12.65;;
34405;SDS011;20658;45.630;8.886;2023-05-14T08:39:11;6.05;;;2.30;;
34405;SDS011;20658;45.630;8.886;2023-05-14T08:41:40;7.63;;;2.90;;
34405;SDS011;20658;45.630;8.886;2023-05-14T08:44:14;5.38;;;2.92;;
34405;SDS011;20658;45.630;8.886;2023-05-14T08:46:46;7.18;;;3.53;;
34405;SDS011;20658;45.630;8.886;2023-05-14T08:49:20;2.85;;;1.48;;
34405;SDS011;20658;45.630;8.886;2023-05-14T08:52:03;3.97;;;1.48;;
34405;SDS011;20658;45.630;8.886;2023-05-14T08:54:37;8.35;;;2.72;;
34405;SDS011;20658;45.630;8.886;2023-05-14T08:57:11;6.28;;;1.85;;
34405;SDS011;20658;45.630;8.886;2023-05-14T08:59:46;1.55;;;0.80;;
34405;SDS011;20658;45.630;8.886;2023-05-14T09:02:20;2.78;;;0.85;;
34405;SDS011;20658;45.630;8.886;2023-05-14T09:04:57;4.07;;;1.25;;
34405;SDS011;20658;45.630;8.886;2023-05-14T09:07:29;6.88;;;1.88;;
34405;SDS011;20658;45.630;8.886;2023-05-14T09:10:03;5.25;;;2.08;;
34405;SDS011;20658;45.630;8.886;2023-05-14T09:12:34;1.80;;;0.75;;
34405;SDS011;20658;45.630;8.886;2023-05-14T09:15:07;3.22;;;1.08;;
34405;SDS011;20658;45.630;8.886;2023-05-14T09:17:36;1.08;;;0.60;;
34405;SDS011;20658;45.630;8.886;2023-05-14T09:20:05;13.82;;;7.72;;
34405;SDS011;20658;45.630;8.886;2023-05-14T09:22:42;5.63;;;2.95;;
34405;SDS011;20658;45.630;8.886;2023-05-14T09:25:17;7.03;;;3.17;;
34405;SDS011;20658;45.630;8.886;2023-05-14T09:27:45;9.27;;;4.80;;
34405;SDS011;20658;45.630;8.886;2023-05-14T09:30:21;4.13;;;2.17;;
34405;SDS011;20658;45.630;8.886;2023-05-14T09:32:55;2.70;;;1.52;;
34405;SDS011;20658;45.630;8.886;2023-05-14T09:35:24;4.38;;;2.35;;
34405;SDS011;20658;45.630;8.886;2023-05-14T09:37:58;5.38;;;1.55;;
34405;SDS011;20658;45.630;8.886;2023-05-14T09:40:27;2.35;;;0.98;;
34405;SDS011;20658;45.630;8.886;2023-05-14T09:43:00;1.70;;;1.00;;
34405;SDS011;20658;45.630;8.886;2023-05-14T09:45:34;4.13;;;1.02;;
34405;SDS011;20658;45.630;8.886;2023-05-14T09:48:02;2.35;;;0.70;;
34405;SDS011;20658;45.630;8.886;2023-05-14T09:50:31;4.03;;;1.88;;
34405;SDS011;20658;45.630;8.886;2023-05-14T09:53:06;0.88;;;0.45;;
34405;SDS011;20658;45.630;8.886;2023-05-14T09:55:40;3.80;;;0.77;;
34405;SDS011;20658;45.630;8.886;2023-05-14T09:58:13;1.58;;;0.70;;
34405;SDS011;20658;45.630;8.886;2023-05-14T10:00:42;2.47;;;0.75;;
34405;SDS011;20658;45.630;8.886;2023-05-14T10:03:18;1.38;;;0.60;;
34405;SDS011;20658;45.630;8.886;2023-05-14T10:05:48;1.80;;;0.93;;
34405;SDS011;20658;45.630;8.886;2023-05-14T10:08:25;3.72;;;1.30;;
34405;SDS011;20658;45.630;8.886;2023-05-14T10:11:07;1.60;;;0.60;;
34405;SDS011;20658;45.630;8.886;2023-05-14T10:13:48;2.58;;;0.85;;
34405;SDS011;20658;45.630;8.886;2023-05-14T10:16:25;1.70;;;0.70;;
34405;SDS011;20658;45.630;8.886;2023-05-14T10:19:01;1.83;;;0.80;;
34405;SDS011;20658;45.630;8.886;2023-05-14T10:21:36;6.43;;;1.48;;
34405;SDS011;20658;45.630;8.886;2023-05-14T10:24:07;1.20;;;0.80;;
34405;SDS011;20658;45.630;8.886;2023-05-14T10:26:38;2.85;;;0.70;;
34405;SDS011;20658;45.630;8.886;2023-05-14T10:29:08;4.38;;;1.10;;
34405;SDS011;20658;45.630;8.886;2023-05-14T10:31:46;4.13;;;0.88;;
34405;SDS011;20658;45.630;8.886;2023-05-14T10:34:34;5.57;;;1.50;;
34405;SDS011;20658;45.630;8.886;2023-05-14T10:39:48;2.75;;;0.80;;
34405;SDS011;20658;45.630;8.886;2023-05-14T10:42:19;2.15;;;0.60;;
34405;SDS011;20658;45.630;8.886;2023-05-14T10:44:55;2.58;;;0.55;;
34405;SDS011;20658;45.630;8.886;2023-05-14T10:47:32;4.65;;;1.10;;
34405;SDS011;20658;45.630;8.886;2023-05-14T10:50:03;5.38;;;0.65;;
34405;SDS011;20658;45.630;8.886;2023-05-14T10:52:33;0.98;;;0.40;;
34405;SDS011;20658;45.630;8.886;2023-05-14T10:55:04;3.15;;;0.90;;
34405;SDS011;20658;45.630;8.886;2023-05-14T10:57:34;2.65;;;0.85;;
34405;SDS011;20658;45.630;8.886;2023-05-14T11:00:11;3.63;;;0.65;;
34405;SDS011;20658;45.630;8.886;2023-05-14T11:02:45;5.05;;;0.50;;
34405;SDS011;20658;45.630;8.886;2023-05-14T11:05:14;3.55;;;0.82;;
34405;SDS011;20658;45.630;8.886;2023-05-14T11:07:49;2.25;;;0.80;;
34405;SDS011;20658;45.630;8.886;2023-05-14T11:10:25;1.05;;;0.50;;
34405;SDS011;20658;45.630;8.886;2023-05-14T11:13:00;4.05;;;0.60;;
34405;SDS011;20658;45.630;8.886;2023-05-14T11:15:29;3.33;;;0.77;;
34405;SDS011;20658;45.630;8.886;2023-05-14T11:17:58;4.25;;;0.55;;
34405;SDS011;20658;45.630;8.886;2023-05-14T11:20:32;2.85;;;0.88;;
34405;SDS011;20658;45.630;8.886;2023-05-14T11:23:03;1.95;;;0.88;;
34405;SDS011;20658;45.630;8.886;2023-05-14T11:25:33;3.58;;;1.02;;
34405;SDS011;20658;45.630;8.886;2023-05-14T11:28:01;4.38;;;0.50;;
34405;SDS011;20658;45.630;8.886;2023-05-14T11:30:35;2.90;;;0.65;;
34405;SDS011;20658;45.630;8.886;2023-05-14T11:33:10;5.45;;;0.82;;
34405;SDS011;20658;45.630;8.886;2023-05-14T11:35:39;1.65;;;0.50;;
34405;SDS011;20658;45.630;8.886;2023-05-14T11:40:51;1.13;;;0.57;;
34405;SDS011;20658;45.630;8.886;2023-05-14T11:43:21;6.47;;;2.45;;
34405;SDS011;20658;45.630;8.886;2023-05-14T11:45:55;3.50;;;0.93;;
34405;SDS011;20658;45.630;8.886;2023-05-14T11:48:28;4.13;;;1.88;;
34405;SDS011;20658;45.630;8.886;2023-05-14T11:51:04;5.68;;;0.55;;
34405;SDS011;20658;45.630;8.886;2023-05-14T11:53:38;1.52;;;0.50;;
34405;SDS011;20658;45.630;8.886;2023-05-14T11:56:08;0.85;;;0.50;;
34405;SDS011;20658;45.630;8.886;2023-05-14T11:58:46;2.38;;;0.57;;
34405;SDS011;20658;45.630;8.886;2023-05-14T12:01:16;1.45;;;0.55;;
34405;SDS011;20658;45.630;8.886;2023-05-14T12:03:44;2.45;;;0.40;;
34405;SDS011;20658;45.630;8.886;2023-05-14T12:06:18;1.02;;;0.28;;
34405;SDS011;20658;45.630;8.886;2023-05-14T12:08:51;5.75;;;0.70;;
34405;SDS011;20658;45.630;8.886;2023-05-14T12:11:30;2.10;;;0.43;;
34405;SDS011;20658;45.630;8.886;2023-05-14T12:14:09;2.13;;;0.50;;
34405;SDS011;20658;45.630;8.886;2023-05-14T12:16:43;2.08;;;0.52;;
34405;SDS011;20658;45.630;8.886;2023-05-14T12:19:18;2.65;;;0.38;;
34405;SDS011;20658;45.630;8.886;2023-05-14T12:21:53;2.03;;;0.38;;
34405;SDS011;20658;45.630;8.886;2023-05-14T12:24:27;2.72;;;0.60;;
34405;SDS011;20658;45.630;8.886;2023-05-14T12:27:02;3.67;;;0.80;;
34405;SDS011;20658;45.630;8.886;2023-05-14T12:29:34;1.90;;;0.40;;
34405;SDS011;20658;45.630;8.886;2023-05-14T12:32:09;3.78;;;0.65;;
34405;SDS011;20658;45.630;8.886;2023-05-14T12:34:37;2.50;;;0.40;;
34405;SDS011;20658;45.630;8.886;2023-05-14T12:37:11;6.50;;;0.70;;
34405;SDS011;20658;45.630;8.886;2023-05-14T12:39:39;1.70;;;0.52;;
34405;SDS011;20658;45.630;8.886;2023-05-14T12:42:09;4.32;;;0.70;;
34405;SDS011;20658;45.630;8.886;2023-05-14T12:44:43;2.75;;;0.70;;
34405;SDS011;20658;45.630;8.886;2023-05-14T12:47:16;1.58;;;0.80;;
34405;SDS011;20658;45.630;8.886;2023-05-14T12:49:50;3.00;;;0.90;;
34405;SDS011;20658;45.630;8.886;2023-05-14T12:52:24;1.60;;;0.50;;
34405;SDS011;20658;45.630;8.886;2023-05-14T12:54:52;2.50;;;0.57;;
34405;SDS011;20658;45.630;8.886;2023-05-14T12:57:27;2.95;;;0.40;;
34405;SDS011;20658;45.630;8.886;2023-05-14T13:00:01;1.20;;;0.40;;
34405;SDS011;20658;45.630;8.886;2023-05-14T13:02:37;2.35;;;0.57;;
34405;SDS011;20658;45.630;8.886;2023-05-14T13:05:05;1.63;;;0.52;;
34405;SDS011;20658;45.630;8.886;2023-05-14T13:07:35;2.22;;;0.40;;
34405;SDS011;20658;45.630;8.886;2023-05-14T13:10:08;1.45;;;0.68;;
34405;SDS011;20658;45.630;8.886;2023-05-14T13:12:44;1.60;;;0.43;;
34405;SDS011;20658;45.630;8.886;2023-05-14T13:15:12;2.78;;;0.43;;
34405;SDS011;20658;45.630;8.886;2023-05-14T13:17:46;3.00;;;0.70;;
34405;SDS011;20658;45.630;8.886;2023-05-14T13:20:20;5.03;;;0.60;;
34405;SDS011;20658;45.630;8.886;2023-05-14T13:22:49;3.28;;;0.60;;
34405;SDS011;20658;45.630;8.886;2023-05-14T13:25:18;3.35;;;0.70;;
34405;SDS011;20658;45.630;8.886;2023-05-14T13:27:48;1.08;;;0.50;;
34405;SDS011;20658;45.630;8.886;2023-05-14T13:30:22;3.38;;;0.50;;
34405;SDS011;20658;45.630;8.886;2023-05-14T13:32:55;1.33;;;0.50;;
34405;SDS011;20658;45.630;8.886;2023-05-14T13:35:24;1.05;;;0.40;;
34405;SDS011;20658;45.630;8.886;2023-05-14T13:37:57;1.17;;;0.30;;
34405;SDS011;20658;45.630;8.886;2023-05-14T13:40:32;0.75;;;0.43;;
34405;SDS011;20658;45.630;8.886;2023-05-14T13:43:02;0.77;;;0.40;;
34405;SDS011;20658;45.630;8.886;2023-05-14T13:45:30;2.00;;;1.00;;
34405;SDS011;20658;45.630;8.886;2023-05-14T13:48:04;0.93;;;0.43;;
34405;SDS011;20658;45.630;8.886;2023-05-14T13:50:38;1.73;;;0.45;;
34405;SDS011;20658;45.630;8.886;2023-05-14T13:53:06;4.75;;;0.60;;
34405;SDS011;20658;45.630;8.886;2023-05-14T13:55:35;2.50;;;0.52;;
34405;SDS011;20658;45.630;8.886;2023-05-14T13:58:10;1.38;;;0.50;;
34405;SDS011;20658;45.630;8.886;2023-05-14T14:00:38;3.45;;;0.73;;
34405;SDS011;20658;45.630;8.886;2023-05-14T14:03:13;9.18;;;1.48;;
34405;SDS011;20658;45.630;8.886;2023-05-14T14:05:46;5.70;;;1.55;;
34405;SDS011;20658;45.630;8.886;2023-05-14T14:08:15;1.60;;;0.60;;
34405;SDS011;20658;45.630;8.886;2023-05-14T14:10:48;11.30;;;3.20;;
34405;SDS011;20658;45.630;8.886;2023-05-14T14:13:18;10.52;;;3.45;;
34405;SDS011;20658;45.630;8.886;2023-05-14T14:15:48;2.87;;;1.03;;
34405;SDS011;20658;45.630;8.886;2023-05-14T14:18:21;4.03;;;0.85;;
34405;SDS011;20658;45.630;8.886;2023-05-14T14:20:55;5.32;;;0.73;;
34405;SDS011;20658;45.630;8.886;2023-05-14T14:23:23;3.22;;;0.80;;
34405;SDS011;20658;45.630;8.886;2023-05-14T14:25:57;2.95;;;0.70;;
34405;SDS011;20658;45.630;8.886;2023-05-14T14:28:33;1.90;;;0.55;;
34405;SDS011;20658;45.630;8.886;2023-05-14T14:31:01;2.78;;;0.57;;
34405;SDS011;20658;45.630;8.886;2023-05-14T14:33:35;3.30;;;0.90;;
34405;SDS011;20658;45.630;8.886;2023-05-14T14:36:03;3.95;;;0.80;;
34405;SDS011;20658;45.630;8.886;2023-05-14T14:38:33;1.65;;;0.57;;
34405;SDS011;20658;45.630;8.886;2023-05-14T14:41:06;2.28;;;0.60;;
34405;SDS011;20658;45.630;8.886;2023-05-14T14:43:39;2.03;;;0.77;;
34405;SDS011;20658;45.630;8.886;2023-05-14T14:46:13;1.90;;;0.80;;
34405;SDS011;20658;45.630;8.886;2023-05-14T14:48:42;3.42;;;0.77;;
34405;SDS011;20658;45.630;8.886;2023-05-14T14:51:10;2.60;;;0.43;;
34405;SDS011;20658;45.630;8.886;2023-05-14T14:53:44;1.63;;;0.60;;
34405;SDS011;20658;45.630;8.886;2023-05-14T14:56:13;1.20;;;0.35;;
34405;SDS011;20658;45.630;8.886;2023-05-14T14:58:48;1.95;;;0.40;;
34405;SDS011;20658;45.630;8.886;2023-05-14T15:01:16;1.45;;;0.40;;
34405;SDS011;20658;45.630;8.886;2023-05-14T15:03:50;2.75;;;0.60;;
34405;SDS011;20658;45.630;8.886;2023-05-14T15:06:23;1.60;;;0.32;;
34405;SDS011;20658;45.630;8.886;2023-05-14T15:08:57;3.33;;;0.60;;
34405;SDS011;20658;45.630;8.886;2023-05-14T15:11:30;1.25;;;0.40;;
34405;SDS011;20658;45.630;8.886;2023-05-14T15:14:05;0.70;;;0.25;;
34405;SDS011;20658;45.630;8.886;2023-05-14T15:16:38;0.73;;;0.35;;
34405;SDS011;20658;45.630;8.886;2023-05-14T15:19:12;1.92;;;0.45;;
34405;SDS011;20658;45.630;8.886;2023-05-14T15:21:46;1.48;;;0.70;;